createdAt,value
2023-05-09T00:00:57.210Z,11.40
2023-05-09T00:03:24.119Z,11.30
2023-05-09T00:05:50.989Z,11.30
2023-05-09T00:08:17.686Z,11.10
2023-05-09T00:10:44.335Z,11.00
2023-05-09T00:13:12.168Z,11.10
2023-05-09T00:15:38.974Z,11.10
2023-05-09T00:18:05.760Z,11.20
2023-05-09T00:20:34.234Z,11.20
2023-05-09T00:23:00.933Z,11.20
2023-05-09T00:25:27.662Z,11.10
2023-05-09T00:27:54.540Z,11.00
2023-05-09T00:30:21.260Z,11.00
2023-05-09T00:32:47.956Z,11.00
2023-05-09T00:35:14.972Z,10.90
2023-05-09T00:37:41.833Z,10.80
2023-05-09T00:40:09.241Z,10.80
2023-05-09T00:42:36.724Z,10.60
2023-05-09T00:45:03.689Z,10.60
2023-05-09T00:47:30.993Z,10.60
2023-05-09T00:49:58.243Z,10.40
2023-05-09T00:52:26.422Z,10.30
2023-05-09T00:54:54.022Z,10.40
2023-05-09T00:57:20.903Z,10.50
2023-05-09T00:59:48.259Z,10.50
2023-05-09T01:02:17.420Z,10.50
2023-05-09T01:04:46.254Z,10.50
2023-05-09T01:07:23.008Z,10.60
2023-05-09T01:10:11.630Z,10.50
2023-05-09T01:13:12.608Z,10.50
2023-05-09T01:15:59.886Z,10.60
2023-05-09T01:18:36.923Z,10.30
2023-05-09T01:21:11.575Z,10.20
2023-05-09T01:23:44.517Z,10.10
2023-05-09T01:26:13.639Z,10.20
2023-05-09T01:29:17.995Z,10.00
2023-05-09T01:31:47.599Z,10.10
2023-05-09T01:34:16.395Z,10.20
2023-05-09T01:36:44.185Z,10.10
2023-05-09T01:39:13.325Z,10.10
2023-05-09T01:41:40.425Z,10.10
2023-05-09T01:44:12.201Z,10.20
2023-05-09T01:46:40.042Z,10.20
2023-05-09T01:49:09.745Z,9.90
2023-05-09T01:51:38.235Z,9.70
2023-05-09T01:54:06.881Z,9.80
2023-05-09T01:57:00.435Z,9.90
2023-05-09T01:59:29.488Z,9.90
2023-05-09T02:01:56.795Z,9.60
2023-05-09T02:04:25.013Z,9.50
2023-05-09T02:06:53.311Z,9.30
2023-05-09T02:09:21.335Z,9.10
2023-05-09T02:11:48.036Z,9.00
2023-05-09T02:14:15.251Z,9.00
2023-05-09T02:16:42.459Z,9.10
2023-05-09T02:19:09.224Z,9.10
2023-05-09T02:21:36.224Z,9.00
2023-05-09T02:24:03.664Z,9.00
2023-05-09T02:26:31.574Z,9.10
2023-05-09T02:28:59.189Z,9.10
2023-05-09T02:31:28.600Z,8.80
2023-05-09T02:33:56.640Z,8.60
2023-05-09T02:36:24.082Z,8.50
2023-05-09T02:38:51.471Z,8.30
2023-05-09T02:41:18.348Z,8.30
2023-05-09T02:43:46.019Z,8.40
2023-05-09T02:46:12.961Z,8.70
2023-05-09T02:48:40.757Z,9.00
2023-05-09T02:51:07.535Z,9.00
2023-05-09T02:53:34.343Z,9.10
2023-05-09T02:56:01.088Z,9.20
2023-05-09T02:58:27.864Z,9.10
2023-05-09T03:00:54.606Z,9.20
2023-05-09T03:03:23.717Z,9.30
2023-05-09T03:05:50.739Z,9.40
2023-05-09T03:08:17.443Z,9.20
2023-05-09T03:10:44.236Z,9.10
2023-05-09T03:13:11.586Z,9.10
2023-05-09T03:15:38.311Z,9.20
2023-05-09T03:18:05.127Z,9.20
2023-05-09T03:20:32.096Z,9.30
2023-05-09T03:22:58.836Z,9.20
2023-05-09T03:25:27.507Z,9.10
2023-05-09T03:27:55.453Z,9.00
2023-05-09T03:30:22.189Z,9.10
2023-05-09T03:32:52.290Z,9.20
2023-05-09T03:35:19.168Z,9.10
2023-05-09T03:37:46.887Z,9.00
2023-05-09T03:40:13.798Z,9.00
2023-05-09T03:42:40.852Z,9.00
2023-05-09T03:45:08.163Z,9.10
2023-05-09T03:47:35.254Z,9.00
2023-05-09T03:50:02.019Z,8.90
2023-05-09T03:52:28.725Z,8.80
2023-05-09T03:54:55.559Z,8.60
2023-05-09T03:57:22.416Z,8.40
2023-05-09T03:59:49.205Z,8.10
2023-05-09T04:02:16.413Z,8.00
2023-05-09T04:04:43.306Z,7.90
2023-05-09T04:07:10.320Z,7.90
2023-05-09T04:09:38.124Z,8.10
2023-05-09T04:12:44.224Z,8.10
2023-05-09T04:15:16.139Z,8.00
2023-05-09T04:17:49.828Z,7.90
2023-05-09T04:20:18.573Z,7.90
2023-05-09T04:22:50.359Z,7.80
2023-05-09T04:25:18.437Z,7.70
2023-05-09T04:27:45.552Z,7.90
2023-05-09T04:33:01.937Z,8.20
2023-05-09T04:35:29.122Z,8.20
2023-05-09T04:37:56.055Z,8.20
2023-05-09T04:40:24.330Z,8.40
2023-05-09T04:42:53.703Z,8.50
2023-05-09T04:45:20.447Z,8.60
2023-05-09T04:47:48.305Z,8.70
2023-05-09T04:50:17.061Z,8.70
2023-05-09T04:52:44.141Z,8.80
2023-05-09T04:55:11.046Z,8.60
2023-05-09T04:57:38.651Z,8.50
2023-05-09T05:00:19.001Z,8.50
2023-05-09T05:02:48.172Z,8.60
2023-05-09T05:05:14.991Z,8.80
2023-05-09T05:07:41.724Z,9.10
2023-05-09T05:10:08.843Z,9.40
2023-05-09T05:12:35.704Z,9.50
2023-05-09T05:15:02.459Z,9.90
2023-05-09T05:17:29.534Z,10.10
2023-05-09T05:19:56.346Z,10.00
2023-05-09T05:22:23.090Z,10.30
2023-05-09T05:24:49.868Z,10.70
2023-05-09T05:27:16.523Z,10.80
2023-05-09T05:29:43.184Z,10.80
2023-05-09T05:32:10.665Z,10.90
2023-05-09T05:34:39.453Z,11.00
2023-05-09T05:37:06.235Z,11.20
2023-05-09T05:39:32.910Z,11.50
2023-05-09T05:41:59.620Z,11.60
2023-05-09T05:44:26.311Z,11.30
2023-05-09T05:46:52.952Z,11.70
2023-05-09T05:49:23.293Z,12.30
2023-05-09T05:51:50.050Z,12.70
2023-05-09T05:54:16.718Z,13.00
2023-05-09T05:56:43.363Z,13.40
2023-05-09T05:59:12.522Z,13.50
2023-05-09T06:01:39.925Z,13.80
2023-05-09T06:04:06.745Z,13.90
2023-05-09T06:06:34.151Z,13.80
2023-05-09T06:09:00.897Z,14.20
2023-05-09T06:11:27.537Z,13.20
2023-05-09T06:13:54.274Z,12.80
2023-05-09T06:16:21.368Z,13.00
2023-05-09T06:18:48.612Z,13.60
2023-05-09T06:21:15.308Z,13.80
2023-05-09T06:23:51.023Z,14.00
2023-05-09T06:26:28.674Z,13.90
2023-05-09T06:28:56.113Z,14.40
2023-05-09T06:31:25.411Z,14.50
2023-05-09T06:33:52.669Z,14.30
2023-05-09T06:36:19.369Z,15.00
2023-05-09T06:38:46.241Z,15.30
2023-05-09T06:41:12.911Z,15.70
2023-05-09T06:43:39.819Z,16.10
2023-05-09T06:46:06.555Z,16.20
2023-05-09T06:48:33.218Z,15.90
2023-05-09T06:50:59.848Z,16.00
2023-05-09T06:53:26.472Z,16.10
2023-05-09T06:55:53.364Z,16.40
2023-05-09T06:58:20.047Z,16.30
2023-05-09T07:00:47.702Z,16.30
2023-05-09T07:03:14.430Z,16.50
2023-05-09T07:05:41.171Z,16.80
2023-05-09T07:08:07.950Z,17.20
2023-05-09T07:10:34.890Z,17.50
2023-05-09T07:13:01.720Z,17.20
2023-05-09T07:15:40.479Z,17.60
2023-05-09T07:18:09.190Z,17.70
2023-05-09T07:20:36.032Z,17.80
2023-05-09T07:23:05.983Z,17.90
2023-05-09T07:25:32.711Z,18.00
2023-05-09T07:27:59.359Z,18.10
2023-05-09T07:30:26.148Z,18.30
2023-05-09T07:32:53.112Z,18.30
2023-05-09T07:35:21.041Z,18.40
2023-05-09T07:37:47.683Z,18.60
2023-05-09T07:40:14.995Z,18.60
2023-05-09T07:42:45.082Z,17.80
2023-05-09T07:45:11.994Z,17.10
2023-05-09T07:47:38.769Z,17.60
2023-05-09T07:50:06.296Z,17.70
2023-05-09T07:52:33.130Z,17.90
2023-05-09T07:54:59.804Z,17.70
2023-05-09T07:57:26.653Z,17.80
2023-05-09T07:59:53.325Z,17.80
2023-05-09T08:02:20.050Z,17.90
2023-05-09T08:04:48.832Z,17.70
2023-05-09T08:07:15.832Z,17.80
2023-05-09T08:09:42.549Z,17.50
2023-05-09T08:12:09.236Z,17.50
2023-05-09T08:14:35.885Z,17.30
2023-05-09T08:17:02.530Z,17.30
2023-05-09T08:19:29.209Z,17.40
2023-05-09T08:21:55.949Z,17.30
2023-05-09T08:24:22.679Z,17.40
2023-05-09T08:26:49.354Z,17.40
2023-05-09T08:29:17.432Z,17.40
2023-05-09T08:31:44.293Z,17.60
2023-05-09T08:34:11.104Z,17.60
2023-05-09T08:36:37.774Z,17.50
2023-05-09T08:39:04.427Z,17.70
2023-05-09T08:41:35.931Z,17.90
2023-05-09T08:44:03.324Z,18.10
2023-05-09T08:46:35.671Z,17.90
2023-05-09T08:49:06.905Z,17.80
2023-05-09T08:51:34.465Z,17.70
2023-05-09T08:54:01.369Z,18.10
2023-05-09T08:56:29.805Z,18.30
2023-05-09T08:58:56.621Z,18.60
2023-05-09T09:01:24.457Z,18.80
2023-05-09T09:03:51.939Z,19.00
2023-05-09T09:06:21.508Z,19.20
2023-05-09T09:08:49.050Z,19.50
2023-05-09T09:11:17.220Z,19.50
2023-05-09T09:13:45.287Z,19.30
2023-05-09T09:16:20.443Z,19.70
2023-05-09T09:18:47.441Z,19.50
2023-05-09T09:21:17.093Z,19.40
2023-05-09T09:23:47.305Z,19.50
2023-05-09T09:26:14.223Z,19.70
2023-05-09T09:28:41.581Z,19.80
2023-05-09T09:31:21.500Z,19.70
2023-05-09T09:33:49.175Z,19.70
2023-05-09T09:36:16.124Z,20.00
2023-05-09T09:38:43.897Z,20.10
2023-05-09T09:41:12.644Z,19.80
2023-05-09T09:43:44.103Z,19.80
2023-05-09T09:46:10.841Z,19.70
2023-05-09T09:48:38.234Z,19.40
2023-05-09T09:51:12.633Z,19.50
2023-05-09T09:53:40.853Z,19.70
2023-05-09T09:56:08.395Z,19.80
2023-05-09T09:58:35.494Z,20.10
2023-05-09T10:01:10.564Z,20.10
2023-05-09T10:03:42.144Z,20.40
2023-05-09T10:06:16.710Z,20.20
2023-05-09T10:08:48.796Z,20.10
2023-05-09T10:11:15.913Z,20.30
2023-05-09T10:13:44.470Z,20.60
2023-05-09T10:16:12.738Z,20.50
2023-05-09T10:18:42.575Z,20.60
2023-05-09T10:21:14.421Z,20.50
2023-05-09T10:23:45.017Z,20.90
2023-05-09T10:26:27.537Z,21.10
2023-05-09T10:29:00.631Z,21.10
2023-05-09T10:31:29.739Z,20.70
2023-05-09T10:33:57.146Z,20.60
2023-05-09T10:36:24.815Z,20.40
2023-05-09T10:38:54.031Z,20.50
2023-05-09T10:41:25.760Z,20.60
2023-05-09T10:43:55.526Z,20.50
2023-05-09T10:46:23.265Z,20.50
2023-05-09T10:48:50.532Z,20.10
2023-05-09T10:51:17.560Z,20.30
2023-05-09T10:53:46.181Z,20.40
2023-05-09T10:56:26.929Z,20.70
2023-05-09T10:58:54.528Z,21.00
2023-05-09T11:01:34.673Z,21.10
2023-05-09T11:04:09.930Z,21.40
2023-05-09T11:06:54.016Z,21.50
2023-05-09T11:09:29.289Z,21.50
2023-05-09T11:11:58.675Z,21.80
2023-05-09T11:14:32.680Z,21.90
2023-05-09T11:17:05.013Z,21.80
2023-05-09T11:19:46.572Z,22.10
2023-05-09T11:22:14.423Z,22.20
2023-05-09T11:25:05.010Z,22.40
2023-05-09T11:27:42.390Z,22.60
2023-05-09T11:30:14.623Z,22.80
2023-05-09T11:32:47.365Z,22.90
2023-05-09T11:35:20.302Z,22.80
2023-05-09T11:37:58.031Z,22.80
2023-05-09T11:40:24.809Z,22.90
2023-05-09T11:42:58.458Z,23.10
2023-05-09T11:45:30.358Z,22.70
2023-05-09T11:47:58.152Z,22.60
2023-05-09T11:50:25.287Z,22.60
2023-05-09T11:52:53.847Z,22.60
2023-05-09T11:55:32.600Z,22.50
2023-05-09T11:57:59.432Z,22.60
2023-05-09T12:00:26.623Z,22.50
2023-05-09T12:02:54.049Z,22.50
2023-05-09T12:05:22.776Z,22.60
2023-05-09T12:07:52.417Z,22.80
2023-05-09T12:10:23.263Z,22.90
2023-05-09T12:12:52.206Z,23.00
2023-05-09T12:15:21.300Z,23.40
2023-05-09T12:18:00.646Z,23.50
2023-05-09T12:20:27.379Z,23.50
2023-05-09T12:22:54.603Z,23.30
2023-05-09T12:25:22.631Z,23.40
2023-05-09T12:27:49.433Z,23.20
2023-05-09T12:30:18.481Z,22.90
2023-05-09T12:32:46.575Z,23.20
2023-05-09T12:35:13.429Z,23.40
2023-05-09T12:37:40.270Z,23.70
2023-05-09T12:40:12.243Z,23.60
2023-05-09T12:42:39.667Z,23.60
2023-05-09T12:45:08.797Z,23.80
2023-05-09T12:47:35.673Z,24.20
2023-05-09T12:50:04.281Z,24.10
2023-05-09T12:52:50.213Z,23.70
2023-05-09T12:55:25.517Z,23.50
2023-05-09T12:58:03.254Z,23.50
2023-05-09T13:00:44.914Z,23.50
2023-05-09T13:03:27.227Z,23.50
2023-05-09T13:05:56.191Z,23.50
2023-05-09T13:08:23.152Z,23.60
2023-05-09T13:10:51.132Z,23.60
2023-05-09T13:13:21.783Z,23.50
2023-05-09T13:15:48.928Z,23.70
2023-05-09T13:18:15.693Z,23.80
2023-05-09T13:20:42.392Z,24.10
2023-05-09T13:23:09.190Z,24.10
2023-05-09T13:25:36.181Z,24.00
2023-05-09T13:28:04.721Z,23.70
2023-05-09T13:30:32.554Z,23.80
2023-05-09T13:33:06.272Z,23.70
2023-05-09T13:35:39.711Z,23.50
2023-05-09T13:38:06.489Z,23.10
2023-05-09T13:40:33.100Z,23.30
2023-05-09T13:42:59.779Z,23.40
2023-05-09T13:45:26.461Z,23.60
2023-05-09T13:47:53.163Z,23.30
2023-05-09T13:50:19.853Z,23.30
2023-05-09T13:52:46.557Z,23.60
2023-05-09T13:55:13.353Z,23.70
2023-05-09T13:57:40.011Z,23.90
2023-05-09T14:00:07.869Z,23.80
2023-05-09T14:02:34.559Z,23.40
2023-05-09T14:05:03.123Z,23.00
2023-05-09T14:07:29.886Z,22.70
2023-05-09T14:10:10.539Z,22.90
2023-05-09T14:12:39.584Z,23.30
2023-05-09T14:15:08.118Z,23.50
2023-05-09T14:17:34.986Z,23.50
2023-05-09T14:20:01.844Z,23.20
2023-05-09T14:22:28.495Z,22.70
2023-05-09T14:24:57.279Z,22.50
2023-05-09T14:27:24.910Z,22.60
2023-05-09T14:29:51.593Z,22.90
2023-05-09T14:32:18.290Z,23.00
2023-05-09T14:34:45.623Z,22.80
2023-05-09T14:37:15.082Z,23.00
2023-05-09T14:39:42.523Z,23.00
2023-05-09T14:42:11.407Z,22.90
2023-05-09T14:44:38.676Z,23.00
2023-05-09T14:47:05.853Z,23.30
2023-05-09T14:49:32.869Z,23.50
2023-05-09T14:51:59.893Z,23.40
2023-05-09T14:54:26.565Z,23.40
2023-05-09T14:56:53.217Z,23.30
2023-05-09T14:59:19.913Z,23.20
2023-05-09T15:01:46.966Z,23.10
2023-05-09T15:04:13.725Z,23.00
2023-05-09T15:06:40.964Z,22.90
2023-05-09T15:09:07.784Z,22.60
2023-05-09T15:11:46.737Z,22.50
2023-05-09T15:14:14.973Z,22.70
2023-05-09T15:16:41.791Z,22.60
2023-05-09T15:19:08.718Z,22.40
2023-05-09T15:21:35.632Z,22.20
2023-05-09T15:24:02.546Z,22.20
2023-05-09T15:26:29.972Z,22.40
2023-05-09T15:28:56.648Z,22.40
2023-05-09T15:31:24.797Z,22.50
2023-05-09T15:33:52.073Z,22.50
2023-05-09T15:36:18.778Z,22.40
2023-05-09T15:38:49.095Z,22.30
2023-05-09T15:41:16.630Z,22.20
2023-05-09T15:43:43.316Z,22.00
2023-05-09T15:46:10.015Z,22.00
2023-05-09T15:48:36.699Z,22.00
2023-05-09T15:51:04.184Z,22.00
2023-05-09T15:53:31.103Z,22.10
2023-05-09T15:55:57.968Z,22.20
2023-05-09T15:58:24.856Z,22.00
2023-05-09T16:00:51.677Z,21.80
2023-05-09T16:03:18.842Z,21.70
2023-05-09T16:05:45.647Z,21.40
2023-05-09T16:08:12.546Z,21.20
2023-05-09T16:10:39.588Z,21.00
2023-05-09T16:13:07.562Z,20.90
2023-05-09T16:15:34.450Z,20.80
2023-05-09T16:18:01.184Z,20.80
2023-05-09T16:20:27.863Z,20.80
2023-05-09T16:22:54.506Z,20.90
2023-05-09T16:25:21.325Z,20.90
2023-05-09T16:27:47.961Z,20.80
2023-05-09T16:30:15.380Z,20.70
2023-05-09T16:32:42.834Z,20.70
2023-05-09T16:35:10.216Z,20.60
2023-05-09T16:37:37.339Z,20.50
2023-05-09T16:40:04.493Z,20.60
2023-05-09T16:42:31.235Z,20.50
2023-05-09T16:44:58.025Z,20.50
2023-05-09T16:47:24.994Z,20.40
2023-05-09T16:49:51.669Z,20.20
2023-05-09T16:52:18.443Z,20.20
2023-05-09T16:54:45.244Z,20.00
2023-05-09T16:57:13.274Z,20.00
2023-05-09T16:59:40.194Z,20.00
2023-05-09T17:02:08.524Z,19.90
2023-05-09T17:04:37.559Z,19.80
2023-05-09T17:07:04.699Z,19.80
2023-05-09T17:09:32.416Z,19.60
2023-05-09T17:12:00.524Z,19.70
2023-05-09T17:14:27.428Z,19.60
2023-05-09T17:16:54.179Z,19.40
2023-05-09T17:19:23.343Z,19.50
2023-05-09T17:21:50.232Z,19.60
2023-05-09T17:24:17.356Z,19.30
2023-05-09T17:26:44.152Z,19.10
2023-05-09T17:29:10.939Z,19.10
2023-05-09T17:31:37.720Z,19.10
2023-05-09T17:34:05.426Z,19.10
2023-05-09T17:36:33.473Z,19.00
2023-05-09T17:39:00.726Z,18.90
2023-05-09T17:41:27.662Z,18.90
2023-05-09T17:43:57.295Z,18.80
2023-05-09T17:46:24.551Z,18.70
2023-05-09T17:48:51.442Z,18.70
2023-05-09T17:51:18.132Z,18.60
2023-05-09T17:53:44.934Z,18.60
2023-05-09T17:56:11.583Z,18.50
2023-05-09T17:58:38.220Z,18.40
2023-05-09T18:01:05.412Z,18.40
2023-05-09T18:03:32.561Z,18.50
2023-05-09T18:06:00.387Z,18.50
2023-05-09T18:08:27.474Z,18.40
2023-05-09T18:10:56.824Z,18.30
2023-05-09T18:13:23.644Z,18.20
2023-05-09T18:15:50.540Z,18.20
2023-05-09T18:18:17.268Z,18.20
2023-05-09T18:20:46.292Z,18.10
2023-05-09T18:23:14.635Z,18.00
2023-05-09T18:25:41.908Z,17.90
2023-05-09T18:28:08.582Z,17.80
2023-05-09T18:30:36.131Z,17.70
2023-05-09T18:33:03.092Z,17.70
2023-05-09T18:35:29.935Z,17.70
2023-05-09T18:37:56.675Z,17.60
2023-05-09T18:40:23.341Z,17.60
2023-05-09T18:42:50.032Z,17.50
2023-05-09T18:45:16.742Z,17.40
2023-05-09T18:47:43.389Z,17.30
2023-05-09T18:50:10.740Z,17.30
2023-05-09T18:52:37.498Z,17.30
2023-05-09T18:55:05.779Z,17.20
2023-05-09T18:57:33.865Z,17.20
2023-05-09T19:00:00.708Z,17.20
2023-05-09T19:02:27.497Z,17.10
2023-05-09T19:04:54.333Z,17.10
2023-05-09T19:07:20.986Z,17.00
2023-05-09T19:09:47.739Z,17.00
2023-05-09T19:12:16.315Z,16.70
2023-05-09T19:14:43.436Z,16.50
2023-05-09T19:17:10.776Z,16.50
2023-05-09T19:19:37.423Z,16.40
2023-05-09T19:22:04.827Z,16.40
2023-05-09T19:24:32.833Z,16.50
2023-05-09T19:26:59.548Z,16.40
2023-05-09T19:29:26.277Z,16.50
2023-05-09T19:31:52.966Z,16.60
2023-05-09T19:34:19.752Z,16.50
2023-05-09T19:36:46.436Z,16.50
2023-05-09T19:39:13.094Z,16.60
2023-05-09T19:41:40.542Z,16.50
2023-05-09T19:44:07.373Z,16.30
2023-05-09T19:46:35.286Z,16.20
2023-05-09T19:49:02.230Z,16.20
2023-05-09T19:51:29.521Z,16.20
2023-05-09T19:53:56.706Z,16.40
2023-05-09T19:56:23.791Z,16.30
2023-05-09T19:58:50.841Z,16.30
2023-05-09T20:01:19.218Z,16.40
2023-05-09T20:03:52.152Z,16.20
2023-05-09T20:06:19.297Z,16.20
2023-05-09T20:08:46.960Z,16.00
2023-05-09T20:11:14.628Z,16.00
2023-05-09T20:13:42.237Z,16.00
2023-05-09T20:16:09.123Z,16.00
2023-05-09T20:18:35.909Z,15.90
2023-05-09T20:21:03.434Z,15.90
2023-05-09T20:23:31.098Z,15.80
2023-05-09T20:25:58.175Z,15.90
2023-05-09T20:28:25.156Z,16.00
2023-05-09T20:30:51.840Z,15.90
2023-05-09T20:33:19.010Z,16.00
2023-05-09T20:35:45.734Z,15.90
2023-05-09T20:38:12.463Z,16.00
2023-05-09T20:40:41.039Z,16.00
2023-05-09T20:43:07.748Z,16.00
2023-05-09T20:45:37.145Z,16.00
2023-05-09T20:48:05.609Z,16.00
2023-05-09T20:50:32.427Z,16.00
2023-05-09T20:52:59.130Z,16.00
2023-05-09T20:55:25.752Z,16.00
2023-05-09T20:57:52.432Z,16.00
2023-05-09T21:00:19.614Z,16.00
2023-05-09T21:02:46.347Z,16.00
2023-05-09T21:05:13.082Z,16.00
2023-05-09T21:07:39.719Z,16.10
2023-05-09T21:10:07.000Z,16.10
2023-05-09T21:12:33.623Z,16.00
2023-05-09T21:15:00.382Z,15.90
2023-05-09T21:17:27.245Z,15.60
2023-05-09T21:19:53.936Z,15.40
2023-05-09T21:22:20.611Z,15.40
2023-05-09T21:24:47.353Z,15.50
2023-05-09T21:27:14.251Z,15.50
2023-05-09T21:29:40.983Z,15.60
2023-05-09T21:32:07.857Z,15.70
2023-05-09T21:34:34.629Z,15.80
2023-05-09T21:37:01.294Z,15.90
2023-05-09T21:39:27.998Z,15.90
2023-05-09T21:41:54.728Z,15.90
2023-05-09T21:44:21.382Z,16.00
2023-05-09T21:46:48.097Z,15.90
2023-05-09T21:49:16.895Z,15.80
2023-05-09T21:51:43.632Z,15.80
2023-05-09T21:54:10.965Z,15.80
2023-05-09T21:56:37.875Z,15.80
2023-05-09T21:59:04.873Z,15.70
2023-05-09T22:01:31.763Z,15.70
2023-05-09T22:03:58.724Z,15.70
2023-05-09T22:06:25.610Z,15.70
2023-05-09T22:08:52.276Z,15.70
2023-05-09T22:11:19.037Z,15.60
2023-05-09T22:13:45.714Z,15.50
2023-05-09T22:16:13.234Z,15.50
2023-05-09T22:18:40.077Z,15.40
2023-05-09T22:21:07.010Z,15.40
2023-05-09T22:23:33.700Z,15.30
2023-05-09T22:26:00.420Z,15.20
2023-05-09T22:28:27.137Z,15.00
2023-05-09T22:30:53.775Z,14.90
2023-05-09T22:33:20.729Z,14.70
2023-05-09T22:35:47.894Z,14.60
2023-05-09T22:38:14.622Z,14.60
2023-05-09T22:40:41.597Z,14.40
2023-05-09T22:43:10.478Z,14.40
2023-05-09T22:45:37.257Z,14.20
2023-05-09T22:48:04.170Z,14.20
2023-05-09T22:50:31.035Z,14.20
2023-05-09T22:52:57.765Z,14.10
2023-05-09T22:55:24.458Z,14.10
2023-05-09T22:57:51.210Z,14.00
2023-05-09T23:00:18.426Z,14.10
2023-05-09T23:02:45.459Z,14.00
2023-05-09T23:05:12.249Z,14.00
2023-05-09T23:07:39.009Z,14.00
2023-05-09T23:10:05.995Z,13.90
2023-05-09T23:12:32.746Z,13.90
2023-05-09T23:14:59.496Z,13.90
2023-05-09T23:17:26.264Z,13.90
2023-05-09T23:19:53.053Z,13.90
2023-05-09T23:22:19.722Z,13.90
2023-05-09T23:24:46.480Z,13.90
2023-05-09T23:27:13.157Z,13.90
2023-05-09T23:29:39.831Z,13.90
2023-05-09T23:32:06.673Z,13.90
2023-05-09T23:34:33.782Z,13.90
2023-05-09T23:37:00.500Z,13.90
2023-05-09T23:39:27.900Z,13.90
2023-05-09T23:41:54.586Z,13.90
2023-05-09T23:44:21.290Z,13.90
2023-05-09T23:46:48.026Z,13.90
2023-05-09T23:49:14.808Z,13.90
2023-05-09T23:51:41.557Z,13.80
2023-05-09T23:54:08.573Z,13.80
2023-05-09T23:56:35.477Z,13.80
2023-05-09T23:59:02.153Z,13.70
